Time;durP1;ratioP1;P1;durP2;ratioP2;P2;SDS_P1;SDS_P2;PMS_P1;PMS_P2;Temp;Humidity;BMP_temperature;BMP_pressure;BME280_temperature;BME280_humidity;BME280_pressure;Samples;Min_cycle;Max_cycle;Signal;HPM_P1;HPM_P2
2023/04/11 00:07:37;;;;;;;3.70;2.73;;;14.20;52.90;;;;;;21092719;28;20235;-67
2023/04/11 00:17:40;;;;;;;3.93;3.00;;;14.20;53.50;;;;;;21091735;28;20266;-68
2023/04/11 00:27:42;;;;;;;5.77;3.20;;;14.10;54.70;;;;;;21090969;28;20234;-71
2023/04/11 00:37:44;;;;;;;4.17;3.10;;;13.80;59.00;;;;;;21090586;28;20662;-68
2023/04/11 00:47:46;;;;;;;4.40;2.70;;;13.60;65.20;;;;;;21088877;28;20233;-68
2023/04/11 00:57:48;;;;;;;4.10;2.53;;;13.40;71.20;;;;;;21088629;28;20208;-70
2023/04/11 01:07:50;;;;;;;5.03;2.83;;;13.30;71.90;;;;;;21087785;28;20243;-72
2023/04/11 01:17:54;;;;;;;4.10;2.90;;;13.30;81.40;;;;;;21087194;28;20211;-70
2023/04/11 01:27:56;;;;;;;4.70;2.60;;;13.30;82.20;;;;;;21087228;28;20234;-69
2023/04/11 01:37:58;;;;;;;2.90;2.50;;;13.10;89.90;;;;;;21086577;28;20221;-69
2023/04/11 01:48:04;;;;;;;3.53;2.47;;;13.00;91.50;;;;;;21084604;28;20641;-69
2023/04/11 01:58:06;;;;;;;4.37;2.50;;;13.00;91.80;;;;;;21082924;28;20208;-71
2023/04/11 02:08:08;;;;;;;2.87;2.37;;;12.80;94.30;;;;;;21082994;28;20295;-71
2023/04/11 02:18:10;;;;;;;3.17;2.60;;;12.80;95.20;;;;;;21082183;28;20206;-70
2023/04/11 02:28:11;;;;;;;3.63;2.30;;;12.70;95.90;;;;;;21081431;28;20235;-69
2023/04/11 02:38:13;;;;;;;5.87;2.67;;;12.70;96.50;;;;;;21081125;28;20202;-69
2023/04/11 02:48:15;;;;;;;2.20;2.00;;;12.70;96.80;;;;;;21080183;28;20632;-69
2023/04/11 02:58:18;;;;;;;2.13;1.87;;;;;;;;;;21079814;28;20221;-70
2023/04/11 03:08:20;;;;;;;2.50;1.87;;;12.60;97.30;;;;;;21079936;28;20236;-71
2023/04/11 03:18:23;;;;;;;1.30;1.20;;;12.20;97.60;;;;;;21078604;28;20208;-72
2023/04/11 03:28:25;;;;;;;2.73;1.10;;;11.60;96.10;;;;;;21078087;28;20614;-70
2023/04/11 03:38:26;;;;;;;1.20;1.10;;;11.30;94.80;;;;;;21078282;28;20204;-69
2023/04/11 03:48:29;;;;;;;3.20;0.90;;;11.30;95.10;;;;;;21077399;28;20235;-68
2023/04/11 03:58:31;;;;;;;4.33;2.50;;;11.00;94.30;;;;;;21077143;28;20226;-72
2023/04/11 04:08:32;;;;;;;3.17;1.00;;;10.60;95.30;;;;;;21076827;28;20296;-69
2023/04/11 04:18:35;;;;;;;1.40;1.00;;;10.30;95.80;;;;;;21083927;28;20207;-68
2023/04/11 04:28:36;;;;;;;1.33;0.93;;;10.50;96.00;;;;;;21090860;28;20591;-68
2023/04/11 04:38:40;;;;;;;1.40;0.90;;;10.70;96.00;;;;;;21090655;28;20204;-70
2023/04/11 04:48:42;;;;;;;4.00;1.10;;;10.70;96.00;;;;;;21089223;28;20244;-68
2023/04/11 04:58:46;;;;;;;2.30;1.03;;;10.50;96.00;;;;;;21088659;28;20681;-68
2023/04/11 05:08:49;;;;;;;1.83;1.00;;;;;;;;;;21087305;28;20239;-68
2023/04/11 05:18:50;;;;;;;2.13;1.30;;;10.40;95.50;;;;;;21091024;28;20716;-70
2023/04/11 05:28:52;;;;;;;4.10;1.10;;;10.50;95.30;;;;;;21087256;28;20244;-69
2023/04/11 05:38:54;;;;;;;2.40;0.90;;;10.60;95.30;;;;;;21086876;28;20262;-69
2023/04/11 05:48:59;;;;;;;1.23;1.10;;;10.60;95.00;;;;;;21084570;28;20564;-70
2023/04/11 05:59:03;;;;;;;2.03;1.00;;;;;;;;;;21083116;28;20603;-70
2023/04/11 06:09:07;;;;;;;3.27;0.90;;;10.70;94.50;;;;;;21081694;28;20284;-67
2023/04/11 06:19:09;;;;;;;3.97;0.80;;;10.70;94.00;;;;;;21081740;28;20571;-68
2023/04/11 06:29:11;;;;;;;2.70;1.20;;;;;;;;;;21080286;28;20237;-65
2023/04/11 06:39:13;;;;;;;2.33;0.90;;;10.80;92.60;;;;;;21079359;28;20211;-68
2023/04/11 06:49:16;;;;;;;3.07;1.10;;;11.00;92.50;;;;;;21078115;28;20700;-63
2023/04/11 06:59:21;;;;;;;3.33;1.23;;;11.20;92.40;;;;;;21078556;28;20204;-65
2023/04/11 07:09:24;;;;;;;5.27;1.57;;;11.30;91.90;;;;;;21076356;28;20607;-66
2023/04/11 07:19:26;;;;;;;6.43;1.60;;;;;;;;;;21077772;28;20270;-66
2023/04/11 07:29:28;;;;;;;5.70;1.30;;;11.30;92.00;;;;;;21077094;28;20235;-66
2023/04/11 07:39:29;;;;;;;9.90;1.67;;;11.40;91.50;;;;;;21076857;28;20217;-66
2023/04/11 07:49:31;;;;;;;11.10;2.07;;;11.60;91.00;;;;;;21078300;28;20381;-66
2023/04/11 07:59:33;;;;;;;4.93;1.77;;;11.80;90.10;;;;;;21092570;28;20206;-66
2023/04/11 08:09:34;;;;;;;7.67;1.67;;;12.10;88.40;;;;;;21091246;28;20246;-65
2023/04/11 08:19:36;;;;;;;6.03;1.47;;;11.60;84.30;;;;;;21091442;28;20275;-65
2023/04/11 08:29:38;;;;;;;7.40;4.00;;;11.80;84.00;;;;;;21089883;28;20241;-66
2023/04/11 08:39:40;;;;;;;6.47;1.90;;;11.90;82.10;;;;;;21088972;28;20228;-66
2023/04/11 08:49:41;;;;;;;6.10;1.50;;;12.10;81.60;;;;;;21088710;28;20233;-68
2023/04/11 08:59:50;;;;;;;3.80;1.30;;;12.00;80.80;;;;;;21087713;28;20210;-66
2023/04/11 09:09:52;;;;;;;6.67;1.40;;;12.30;75.60;;;;;;21086868;28;20241;-68
2023/04/11 09:19:53;;;;;;;6.13;1.57;;;12.60;75.20;;;;;;21087737;28;20206;-70
2023/04/11 09:29:55;;;;;;;2.83;1.30;;;12.90;72.00;;;;;;21086296;28;20235;-70
2023/04/11 09:39:58;;;;;;;3.13;1.30;;;12.80;69.00;;;;;;21084665;28;20571;-65
2023/04/11 09:50:00;;;;;;;3.83;1.60;;;13.10;69.40;;;;;;21084292;28;20233;-66
2023/04/11 10:00:13;;;;;;;5.47;1.60;;;12.80;67.60;;;;;;21082844;28;20254;-66
2023/04/11 10:10:20;;;;;;;5.87;1.40;;;13.10;64.70;;;;;;21079804;27;20245;-67
2023/04/11 10:20:34;;;;;;;7.03;1.40;;;13.10;64.60;;;;;;21079413;28;20604;-69
2023/04/11 10:31:00;;;;;;;8.27;1.73;;;13.10;65.30;;;;;;21078468;28;20234;-65
2023/04/11 10:41:22;;;;;;;3.70;1.20;;;12.90;65.30;;;;;;21077939;28;20335;-65
2023/04/11 10:51:25;;;;;;;4.07;1.37;;;10.90;85.70;;;;;;21078965;28;20236;-73
2023/04/11 11:01:27;;;;;;;4.30;1.20;;;11.20;88.50;;;;;;21076222;28;20200;-63
2023/04/11 11:11:39;;;;;;;10.37;1.40;;;11.70;88.80;;;;;;21044463;28;20246;-64
2023/04/11 11:21:41;;;;;;;3.73;1.40;;;12.30;84.40;;;;;;20944548;28;20198;-65
2023/04/11 11:31:44;;;;;;;3.43;1.40;;;12.40;84.60;;;;;;21038814;28;20257;-67
2023/04/11 11:41:47;;;;;;;5.13;1.47;;;13.00;80.80;;;;;;21008382;28;20215;-67
2023/04/11 11:57:21;;;;;;;6.03;1.43;;;13.50;67.60;;;;;;20942489;28;20575;-63
2023/04/11 12:07:23;;;;;;;3.13;1.10;;;13.80;63.70;;;;;;20900606;28;20208;-65
2023/04/11 12:17:33;;;;;;;2.47;1.20;;;14.40;64.20;;;;;;20898090;28;20231;-67
2023/04/11 12:27:42;;;;;;;4.23;1.23;;;14.10;64.80;;;;;;20898872;28;20628;-65
2023/04/11 12:37:44;;;;;;;4.10;0.93;;;13.80;65.70;;;;;;20898061;28;20212;-70
2023/04/11 12:47:46;;;;;;;2.70;0.80;;;13.60;63.70;;;;;;20897589;28;20240;-67
2023/04/11 12:57:48;;;;;;;2.23;0.90;;;13.80;59.60;;;;;;20896813;28;20634;-68
2023/04/11 13:07:51;;;;;;;5.10;1.20;;;14.10;60.20;;;;;;20846892;28;20319;-65
2023/04/11 13:17:52;;;;;;;6.87;3.70;;;14.70;60.20;;;;;;20842428;28;20236;-71
2023/04/11 13:27:55;;;;;;;5.13;3.07;;;15.10;57.50;;;;;;20839689;28;20815;-67
2023/04/11 13:37:57;;;;;;;5.97;1.03;;;14.90;55.40;;;;;;20838658;28;20268;-67
2023/04/11 13:47:58;;;;;;;4.07;1.83;;;16.00;50.80;;;;;;20838151;28;20242;-67
2023/04/11 13:58:00;;;;;;;4.00;1.10;;;19.00;45.10;;;;;;20837182;28;20211;-69
2023/04/11 14:08:03;;;;;;;4.00;0.90;;;19.00;45.50;;;;;;20836178;28;20229;-67
2023/04/11 14:18:04;;;;;;;7.80;0.90;;;19.60;43.70;;;;;;20834896;28;20738;-67
2023/04/11 14:28:06;;;;;;;1.70;1.00;;;17.50;43.90;;;;;;20834961;28;20242;-67
2023/04/11 14:38:08;;;;;;;2.20;1.17;;;15.50;46.90;;;;;;20834222;28;20678;-67
2023/04/11 14:48:10;;;;;;;6.77;1.60;;;15.10;49.30;;;;;;20833225;28;20265;-68
2023/04/11 14:58:11;;;;;;;2.43;1.17;;;15.10;50.00;;;;;;20832573;28;20660;-69
2023/04/11 15:08:13;;;;;;;5.30;1.50;;;15.70;45.70;;;;;;20831723;28;20234;-70
2023/04/11 15:18:21;;;;;;;3.43;1.13;;;15.60;46.00;;;;;;20831099;28;20659;-70
2023/04/11 15:28:24;;;;;;;5.50;1.53;;;17.60;43.80;;;;;;20830704;28;20298;-69
2023/04/11 15:38:27;;;;;;;2.40;1.03;;;17.30;44.20;;;;;;20830364;28;20215;-68
2023/04/11 15:48:29;;;;;;;2.83;1.10;;;17.60;43.10;;;;;;20830167;28;20242;-69
2023/04/11 15:58:33;;;;;;;4.00;1.50;;;19.60;40.20;;;;;;20827823;28;20205;-75
2023/04/11 16:08:36;;;;;;;3.93;1.40;;;18.10;40.80;;;;;;20826616;28;20244;-71
2023/04/11 16:18:38;;;;;;;5.17;1.27;;;17.60;42.10;;;;;;20826185;28;20602;-69
2023/04/11 16:28:39;;;;;;;4.43;1.10;;;16.50;41.60;;;;;;20825644;28;20238;-70
2023/04/11 16:38:41;;;;;;;1.67;0.90;;;16.70;44.30;;;;;;20832500;28;20208;-72
2023/04/11 16:48:43;;;;;;;3.37;1.10;;;16.70;45.10;;;;;;20840568;28;20245;-71
2023/04/11 16:58:45;;;;;;;3.50;1.10;;;16.00;44.60;;;;;;20841340;28;20251;-69
2023/04/11 17:08:46;;;;;;;2.87;1.10;;;14.60;46.00;;;;;;20841235;28;20319;-69
2023/04/11 17:18:48;;;;;;;2.77;1.00;;;14.10;47.50;;;;;;20839528;28;20227;-67
2023/04/11 17:28:50;;;;;;;2.33;1.40;;;13.50;48.10;;;;;;20837866;28;20228;-67
2023/04/11 17:38:53;;;;;;;2.73;1.27;;;13.30;49.20;;;;;;20836908;28;20278;-68
2023/04/11 17:48:55;;;;;;;3.40;1.30;;;13.30;50.00;;;;;;20836010;28;20257;-67
2023/04/11 17:58:56;;;;;;;2.90;1.40;;;13.00;51.00;;;;;;20836469;28;20201;-68
2023/04/11 18:09:00;;;;;;;3.87;1.60;;;13.00;51.50;;;;;;20836967;28;20237;-69
2023/04/11 18:19:01;;;;;;;4.50;1.63;;;12.60;52.50;;;;;;20835570;28;20216;-71
2023/04/11 18:29:03;;;;;;;6.07;2.43;;;12.60;53.00;;;;;;20834565;28;20236;-69
2023/04/11 18:39:06;;;;;;;5.90;2.20;;;12.40;53.50;;;;;;20834375;28;20208;-70
2023/04/11 18:49:08;;;;;;;4.77;2.57;;;12.30;53.90;;;;;;20833769;28;20699;-70
2023/04/11 18:59:10;;;;;;;8.67;3.30;;;12.20;54.20;;;;;;20821720;28;20259;-70
2023/04/11 19:09:15;;;;;;;4.83;2.30;;;12.20;54.40;;;;;;20792438;28;20250;-71
2023/04/11 19:19:17;;;;;;;10.07;3.20;;;12.20;54.50;;;;;;20785677;28;20624;-70
2023/04/11 19:29:19;;;;;;;6.73;2.53;;;11.80;55.70;;;;;;20781748;28;20818;-71
2023/04/11 19:39:20;;;;;;;5.77;2.60;;;11.80;56.40;;;;;;20786042;28;20212;-65
2023/04/11 19:49:22;;;;;;;7.17;2.40;;;11.60;57.50;;;;;;20791688;28;20291;-66
2023/04/11 19:59:24;;;;;;;7.57;2.60;;;11.30;58.40;;;;;;20786955;28;20207;-66
2023/04/11 20:09:28;;;;;;;10.33;3.00;;;11.30;58.90;;;;;;20789514;28;20249;-70
2023/04/11 20:19:32;;;;;;;5.17;3.40;;;10.70;61.00;;;;;;20804871;28;20206;-69
2023/04/11 20:29:33;;;;;;;6.57;3.60;;;10.60;62.20;;;;;;20798783;28;20259;-71
2023/04/11 20:39:35;;;;;;;9.13;3.80;;;10.50;63.10;;;;;;20804838;28;20210;-69
2023/04/11 20:49:37;;;;;;;9.97;3.87;;;10.40;63.90;;;;;;20804263;28;20245;-71
2023/04/11 20:59:38;;;;;;;9.60;3.90;;;10.40;64.70;;;;;;20800840;28;20211;-70
2023/04/11 21:09:40;;;;;;;10.97;3.97;;;10.30;66.00;;;;;;20826855;28;20765;-70
2023/04/11 21:19:42;;;;;;;11.47;3.90;;;10.20;66.80;;;;;;20841129;28;20213;-70
2023/04/11 21:29:43;;;;;;;7.77;3.57;;;10.20;68.10;;;;;;20839621;28;20233;-71
2023/04/11 21:39:45;;;;;;;9.23;3.60;;;10.20;68.60;;;;;;20839375;28;20253;-71
2023/04/11 21:49:47;;;;;;;6.53;2.83;;;10.20;68.80;;;;;;20838899;28;20240;-71
2023/04/11 21:59:49;;;;;;;5.73;2.40;;;10.20;69.00;;;;;;20838074;28;20204;-70
2023/04/11 22:09:58;;;;;;;5.43;2.33;;;10.20;69.60;;;;;;20837157;28;20283;-70
2023/04/11 22:20:00;;;;;;;8.30;3.50;;;;;;;;;;20836514;28;20212;-70
2023/04/11 22:30:02;;;;;;;7.53;3.30;;;10.20;70.30;;;;;;20835452;28;20243;-70
2023/04/11 22:40:05;;;;;;;5.53;2.80;;;10.10;70.70;;;;;;20833988;28;20205;-70
2023/04/11 22:50:08;;;;;;;6.90;3.23;;;10.10;71.30;;;;;;20834178;28;20251;-70
2023/04/11 23:00:11;;;;;;;7.17;2.93;;;10.10;71.70;;;;;;20833213;28;20666;-69
2023/04/11 23:10:14;;;;;;;9.53;3.67;;;10.00;72.00;;;;;;20832346;28;20240;-70
2023/04/11 23:20:16;;;;;;;11.77;3.80;;;10.00;72.80;;;;;;20832231;28;20230;-71
2023/04/11 23:30:19;;;;;;;9.53;3.50;;;9.90;75.10;;;;;;20829942;28;20359;-70
2023/04/11 23:40:21;;;;;;;6.43;3.57;;;9.80;76.10;;;;;;20830732;28;20208;-70
2023/04/11 23:50:23;;;;;;;6.13;3.20;;;9.90;76.70;;;;;;20830071;28;20242;-71
